createdAt,value
2022-12-01T00:01:20.116Z,58.89
2022-12-01T00:03:47.672Z,58.62
2022-12-01T00:06:17.309Z,59.46
2022-12-01T00:09:05.754Z,59.11
2022-12-01T00:11:34.511Z,59.21
2022-12-01T00:14:02.085Z,57.71
2022-12-01T00:16:29.722Z,57.32
2022-12-01T00:18:57.351Z,57.65
2022-12-01T00:21:25.769Z,57.73
2022-12-01T00:23:55.141Z,56.83
2022-12-01T00:26:23.529Z,57.81
2022-12-01T00:28:51.743Z,57.76
2022-12-01T00:31:19.588Z,59.55
2022-12-01T00:33:47.220Z,59.71
2022-12-01T00:36:14.675Z,60.36
2022-12-01T00:38:42.050Z,60.11
2022-12-01T00:41:09.731Z,59.27
2022-12-01T00:43:37.180Z,60.12
2022-12-01T00:46:04.617Z,57.39
2022-12-01T00:48:32.250Z,58.38
2022-12-01T00:50:59.549Z,60.58
2022-12-01T00:53:26.869Z,60.21
2022-12-01T00:55:54.482Z,61.14
2022-12-01T00:58:22.659Z,60.96
2022-12-01T01:00:50.131Z,59.84
2022-12-01T01:03:17.766Z,59.92
2022-12-01T01:05:45.088Z,59.96
2022-12-01T01:08:14.931Z,59.68
2022-12-01T01:10:45.052Z,59.06
2022-12-01T01:13:13.448Z,62.58
2022-12-01T01:15:41.090Z,62.59
2022-12-01T01:18:10.426Z,63.25
2022-12-01T01:20:37.773Z,62.44
2022-12-01T01:23:05.095Z,61.33
2022-12-01T01:25:32.885Z,60.86
2022-12-01T01:28:00.199Z,62.26
2022-12-01T01:30:27.761Z,61.95
2022-12-01T01:32:55.684Z,61.07
2022-12-01T01:35:23.004Z,62.71
2022-12-01T01:37:50.977Z,61.94
2022-12-01T01:40:18.829Z,61.04
2022-12-01T01:42:46.337Z,62.92
2022-12-01T01:45:21.257Z,62.87
2022-12-01T01:47:50.171Z,62.03
2022-12-01T01:50:19.808Z,61.85
2022-12-01T01:52:51.829Z,62.40
2022-12-01T01:55:19.641Z,60.51
2022-12-01T01:57:46.997Z,61.03
2022-12-01T02:00:17.349Z,61.77
2022-12-01T02:02:46.692Z,62.55
2022-12-01T02:05:23.748Z,63.78
2022-12-01T02:07:52.512Z,64.05
2022-12-01T02:10:23.497Z,61.96
2022-12-01T02:13:26.958Z,64.05
2022-12-01T02:16:12.995Z,63.92
2022-12-01T02:18:57.332Z,64.43
2022-12-01T02:21:54.649Z,65.15
2022-12-01T02:24:46.933Z,64.96
2022-12-01T02:27:45.562Z,64.04
2022-12-01T02:30:37.658Z,62.58
2022-12-01T02:33:14.328Z,64.71
2022-12-01T02:35:56.156Z,64.50
2022-12-01T02:38:38.660Z,64.91
2022-12-01T02:41:23.145Z,64.50
2022-12-01T02:44:14.609Z,63.80
2022-12-01T02:46:46.805Z,66.04
2022-12-01T02:49:17.551Z,65.57
2022-12-01T02:51:45.346Z,66.52
2022-12-01T02:54:14.719Z,67.11
2022-12-01T02:56:44.908Z,68.38
2022-12-01T02:59:14.092Z,67.27
2022-12-01T03:02:00.039Z,67.21
2022-12-01T03:04:45.684Z,67.74
2022-12-01T03:07:36.451Z,70.18
2022-12-01T03:10:29.597Z,68.44
2022-12-01T03:13:28.170Z,67.46
2022-12-01T03:16:07.201Z,67.71
2022-12-01T03:18:54.896Z,67.44
2022-12-01T03:21:25.190Z,67.66
2022-12-01T03:24:02.062Z,69.65
2022-12-01T03:26:30.389Z,67.69
2022-12-01T03:29:06.733Z,65.93
2022-12-01T03:31:40.898Z,66.97
2022-12-01T03:34:13.684Z,67.12
2022-12-01T03:36:48.294Z,65.95
2022-12-01T03:39:19.970Z,65.33
2022-12-01T03:41:52.027Z,64.86
2022-12-01T03:44:21.969Z,65.79
2022-12-01T03:46:56.898Z,65.89
2022-12-01T03:49:25.770Z,66.49
2022-12-01T03:51:59.273Z,64.65
2022-12-01T03:55:05.492Z,64.24
2022-12-01T03:57:34.817Z,63.41
2022-12-01T04:00:02.997Z,64.84
2022-12-01T04:02:40.394Z,65.46
2022-12-01T04:05:11.369Z,66.29
2022-12-01T04:07:39.377Z,66.86
2022-12-01T04:10:07.529Z,65.86
2022-12-01T04:12:35.220Z,66.17
2022-12-01T04:15:11.143Z,65.83
2022-12-01T04:17:39.239Z,65.54
2022-12-01T04:20:07.673Z,65.96
2022-12-01T04:22:35.000Z,66.05
2022-12-01T04:25:03.669Z,63.99
2022-12-01T04:27:31.023Z,63.56
2022-12-01T04:29:58.352Z,63.16
2022-12-01T04:32:27.143Z,62.01
2022-12-01T04:34:54.430Z,63.38
2022-12-01T04:37:21.851Z,64.96
2022-12-01T04:39:49.690Z,65.44
2022-12-01T04:42:17.205Z,63.93
2022-12-01T04:44:44.517Z,63.52
2022-12-01T04:47:12.090Z,62.50
2022-12-01T04:49:39.376Z,63.56
2022-12-01T04:52:07.499Z,63.99
2022-12-01T04:54:35.126Z,63.80
2022-12-01T04:57:02.436Z,62.30
2022-12-01T04:59:29.826Z,62.33
2022-12-01T05:01:57.484Z,63.58
2022-12-01T05:04:24.832Z,63.56
2022-12-01T05:06:54.413Z,62.20
2022-12-01T05:09:22.017Z,63.58
2022-12-01T05:11:49.317Z,63.22
2022-12-01T05:14:16.635Z,62.34
2022-12-01T05:16:44.222Z,62.57
2022-12-01T05:19:30.491Z,62.60
2022-12-01T05:21:58.058Z,60.76
2022-12-01T05:24:25.740Z,60.92
2022-12-01T05:26:53.044Z,61.38
2022-12-01T05:29:20.624Z,62.78
2022-12-01T05:31:49.014Z,63.80
2022-12-01T05:34:16.506Z,64.30
2022-12-01T05:36:44.079Z,66.81
2022-12-01T05:39:11.387Z,65.98
2022-12-01T05:41:38.716Z,65.04
2022-12-01T05:44:06.300Z,64.24
2022-12-01T05:46:33.635Z,64.27
2022-12-01T05:49:00.944Z,65.18
2022-12-01T05:51:28.508Z,63.62
2022-12-01T05:53:55.812Z,62.13
2022-12-01T05:56:23.130Z,63.06
2022-12-01T05:58:50.684Z,64.56
2022-12-01T06:01:18.098Z,64.31
2022-12-01T06:03:45.735Z,64.07
2022-12-01T06:06:13.055Z,65.34
2022-12-01T06:08:40.411Z,65.50
2022-12-01T06:11:07.993Z,63.97
2022-12-01T06:13:35.340Z,66.65
2022-12-01T06:16:05.385Z,65.63
2022-12-01T06:18:35.217Z,66.54
2022-12-01T06:21:03.011Z,66.19
2022-12-01T06:23:30.859Z,66.70
2022-12-01T06:25:58.848Z,65.11
2022-12-01T06:28:26.180Z,65.87
2022-12-01T06:30:57.772Z,66.08
2022-12-01T06:33:28.804Z,64.37
2022-12-01T06:36:02.997Z,65.78
2022-12-01T06:38:31.577Z,64.23
2022-12-01T06:40:59.110Z,63.84
2022-12-01T06:43:26.692Z,63.73
2022-12-01T06:46:00.808Z,62.91
2022-12-01T06:48:28.885Z,64.24
2022-12-01T06:51:00.201Z,65.58
2022-12-01T06:53:28.703Z,64.30
2022-12-01T06:56:00.987Z,64.86
2022-12-01T06:58:28.687Z,64.26
2022-12-01T07:00:57.417Z,64.00
2022-12-01T07:03:24.836Z,63.40
2022-12-01T07:05:58.588Z,63.95
2022-12-01T07:08:30.285Z,64.09
2022-12-01T07:11:02.608Z,64.44
2022-12-01T07:13:33.695Z,63.51
2022-12-01T07:16:03.112Z,64.38
2022-12-01T07:18:31.416Z,66.06
2022-12-01T07:21:03.711Z,65.21
2022-12-01T07:23:31.748Z,63.98
2022-12-01T07:26:07.795Z,64.46
2022-12-01T07:28:35.404Z,66.87
2022-12-01T07:31:09.110Z,70.85
2022-12-01T07:33:36.930Z,69.44
2022-12-01T07:36:04.841Z,68.69
2022-12-01T07:38:33.582Z,69.20
2022-12-01T07:41:03.347Z,67.80
2022-12-01T07:43:31.987Z,67.86
2022-12-01T07:46:10.743Z,66.08
2022-12-01T07:48:39.355Z,65.37
2022-12-01T07:51:08.247Z,64.85
2022-12-01T07:53:35.797Z,64.89
2022-12-01T07:56:08.525Z,64.58
2022-12-01T07:58:36.620Z,63.95
2022-12-01T08:01:09.413Z,60.99
2022-12-01T08:03:37.451Z,61.63
2022-12-01T08:06:05.904Z,62.26
2022-12-01T08:08:35.051Z,60.70
2022-12-01T08:11:06.521Z,60.80
2022-12-01T08:13:33.907Z,59.59
2022-12-01T08:16:05.465Z,58.99
2022-12-01T08:18:39.980Z,59.42
2022-12-01T08:21:09.173Z,58.71
2022-12-01T08:23:36.915Z,56.34
2022-12-01T08:26:08.299Z,56.49
2022-12-01T08:28:36.323Z,55.70
2022-12-01T08:31:10.949Z,55.71
2022-12-01T08:33:38.296Z,53.93
2022-12-01T08:36:06.489Z,50.54
2022-12-01T08:38:33.871Z,49.74
2022-12-01T08:41:03.025Z,48.15
2022-12-01T08:46:18.069Z,46.05
2022-12-01T08:48:45.691Z,44.94
2022-12-01T08:51:15.542Z,44.63
2022-12-01T08:53:45.860Z,44.41
2022-12-01T08:56:21.212Z,43.14
2022-12-01T08:58:48.616Z,43.09
2022-12-01T09:01:16.910Z,43.64
2022-12-01T09:03:44.758Z,42.26
2022-12-01T09:06:22.806Z,41.31
2022-12-01T09:08:50.488Z,41.71
2022-12-01T09:11:18.990Z,42.25
2022-12-01T09:13:52.944Z,40.55
2022-12-01T09:16:22.327Z,41.96
2022-12-01T09:18:49.744Z,42.74
2022-12-01T09:21:26.635Z,40.50
2022-12-01T09:23:54.287Z,41.61
2022-12-01T09:26:22.140Z,40.97
2022-12-01T09:28:54.029Z,42.84
2022-12-01T09:31:23.523Z,42.24
2022-12-01T09:33:56.329Z,45.03
2022-12-01T09:36:24.324Z,46.16
2022-12-01T09:38:51.765Z,48.78
2022-12-01T09:41:26.308Z,47.49
2022-12-01T09:44:01.022Z,49.66
2022-12-01T09:46:34.763Z,49.48
2022-12-01T09:49:03.888Z,51.73
2022-12-01T09:51:36.112Z,50.05
2022-12-01T09:54:04.086Z,49.49
2022-12-01T09:56:36.444Z,48.44
2022-12-01T09:59:08.098Z,50.63
2022-12-01T10:01:41.870Z,49.11
2022-12-01T10:04:13.276Z,49.76
2022-12-01T10:06:54.607Z,52.04
2022-12-01T10:10:00.121Z,53.53
2022-12-01T10:12:33.390Z,53.74
2022-12-01T10:15:25.357Z,52.77
2022-12-01T10:18:13.728Z,53.68
2022-12-01T10:20:45.847Z,52.87
2022-12-01T10:23:41.805Z,53.08
2022-12-01T10:26:26.206Z,52.04
2022-12-01T10:29:27.874Z,53.70
2022-12-01T10:32:00.561Z,51.52
2022-12-01T10:34:30.649Z,51.24
2022-12-01T10:36:58.431Z,52.35
2022-12-01T10:39:30.002Z,50.20
2022-12-01T10:42:08.273Z,50.66
2022-12-01T10:44:36.149Z,49.85
2022-12-01T10:47:04.163Z,50.74
2022-12-01T10:49:40.125Z,51.42
2022-12-01T10:52:08.324Z,52.36
2022-12-01T10:54:40.670Z,50.39
2022-12-01T10:57:15.585Z,49.74
2022-12-01T11:00:02.267Z,51.07
2022-12-01T11:02:32.185Z,50.50
2022-12-01T11:05:05.305Z,50.10
2022-12-01T11:07:36.086Z,52.48
2022-12-01T11:10:17.675Z,53.37
2022-12-01T11:12:53.387Z,53.51
2022-12-01T11:15:27.167Z,51.94
2022-12-01T11:18:22.721Z,50.77
2022-12-01T11:21:15.116Z,51.54
2022-12-01T11:23:50.823Z,51.78
2022-12-01T11:26:33.011Z,51.49
2022-12-01T11:29:03.585Z,50.26
2022-12-01T11:31:42.606Z,50.98
2022-12-01T11:34:20.063Z,50.10
2022-12-01T11:36:50.391Z,50.74
2022-12-01T11:39:38.515Z,49.32
2022-12-01T11:42:25.097Z,49.94
2022-12-01T11:45:05.578Z,50.84
2022-12-01T11:47:32.953Z,48.66
2022-12-01T11:50:23.966Z,48.24
2022-12-01T11:52:51.260Z,47.86
2022-12-01T11:55:26.965Z,47.14
2022-12-01T11:57:57.500Z,47.33
2022-12-01T12:00:28.390Z,50.92
2022-12-01T12:03:20.011Z,52.25
2022-12-01T12:06:38.340Z,50.99
2022-12-01T12:09:16.246Z,49.20
2022-12-01T12:12:01.700Z,47.05
2022-12-01T12:14:36.077Z,47.78
2022-12-01T12:17:20.154Z,48.74
2022-12-01T12:20:07.643Z,47.17
2022-12-01T12:22:41.818Z,46.53
2022-12-01T12:25:23.296Z,47.46
2022-12-01T12:28:06.028Z,47.20
2022-12-01T12:30:50.925Z,46.10
2022-12-01T12:33:44.382Z,46.09
2022-12-01T12:36:35.914Z,45.95
2022-12-01T12:39:22.168Z,45.42
2022-12-01T12:41:52.629Z,44.45
2022-12-01T12:44:49.631Z,45.80
2022-12-01T12:48:14.422Z,47.45
2022-12-01T12:51:03.493Z,46.55
2022-12-01T12:53:40.399Z,46.82
2022-12-01T12:56:13.018Z,45.99
2022-12-01T12:58:53.761Z,46.45
2022-12-01T13:01:26.597Z,46.87
2022-12-01T13:04:00.705Z,48.00
2022-12-01T13:06:50.283Z,50.65
2022-12-01T13:09:22.142Z,49.37
2022-12-01T13:12:08.629Z,51.64
2022-12-01T13:14:39.991Z,50.25
2022-12-01T13:17:17.251Z,49.44
2022-12-01T13:19:45.908Z,47.65
2022-12-01T13:22:14.374Z,50.10
2022-12-01T13:24:42.052Z,50.85
2022-12-01T13:27:09.660Z,51.81
2022-12-01T13:29:47.757Z,51.75
2022-12-01T13:32:33.791Z,51.82
2022-12-01T13:35:05.528Z,50.28
2022-12-01T13:37:35.776Z,54.35
2022-12-01T13:40:22.949Z,53.14
2022-12-01T13:43:10.508Z,52.19
2022-12-01T13:45:40.225Z,50.34
2022-12-01T13:48:27.672Z,49.06
2022-12-01T13:50:57.784Z,50.97
2022-12-01T13:53:28.442Z,49.67
2022-12-01T13:56:04.529Z,49.19
2022-12-01T13:58:35.130Z,50.83
2022-12-01T14:01:21.107Z,50.46
2022-12-01T14:04:18.486Z,50.45
2022-12-01T14:06:50.758Z,50.81
2022-12-01T14:09:31.967Z,50.89
2022-12-01T14:12:03.001Z,51.48
2022-12-01T14:14:39.697Z,50.42
2022-12-01T14:17:24.355Z,51.48
2022-12-01T14:19:52.598Z,51.49
2022-12-01T14:22:39.973Z,52.05
2022-12-01T14:25:19.906Z,51.90
2022-12-01T14:27:59.777Z,52.47
2022-12-01T14:30:39.611Z,51.52
2022-12-01T14:33:47.501Z,52.47
2022-12-01T14:36:17.933Z,53.23
2022-12-01T14:38:46.468Z,53.36
2022-12-01T14:41:25.820Z,52.90
2022-12-01T14:44:03.847Z,51.58
2022-12-01T14:46:42.637Z,53.30
2022-12-01T14:49:17.923Z,53.53
2022-12-01T14:51:47.678Z,52.82
2022-12-01T14:54:19.561Z,54.13
2022-12-01T14:56:48.424Z,54.80
2022-12-01T14:59:22.139Z,54.81
2022-12-01T15:01:51.684Z,55.47
2022-12-01T15:04:19.821Z,55.42
2022-12-01T15:06:47.463Z,55.87
2022-12-01T15:09:36.019Z,56.06
2022-12-01T15:12:08.869Z,55.97
2022-12-01T15:14:38.817Z,56.43
2022-12-01T15:17:08.885Z,55.06
2022-12-01T15:19:38.748Z,56.88
2022-12-01T15:22:17.185Z,55.91
2022-12-01T15:24:45.779Z,57.59
2022-12-01T15:27:31.230Z,57.70
2022-12-01T15:30:03.466Z,57.43
2022-12-01T15:32:32.969Z,58.38
2022-12-01T15:35:05.387Z,58.38
2022-12-01T15:37:42.625Z,57.94
2022-12-01T15:43:07.384Z,58.10
2022-12-01T15:45:51.547Z,57.05
2022-12-01T15:48:34.752Z,59.00
2022-12-01T15:51:18.293Z,57.54
2022-12-01T15:53:50.056Z,58.86
2022-12-01T15:56:25.220Z,59.51
2022-12-01T15:58:56.888Z,59.75
2022-12-01T16:01:30.130Z,58.73
2022-12-01T16:04:03.769Z,59.36
2022-12-01T16:06:34.154Z,59.59
2022-12-01T16:09:16.609Z,60.43
2022-12-01T16:12:04.114Z,59.77
2022-12-01T16:14:35.006Z,60.28
2022-12-01T16:17:03.065Z,60.93
2022-12-01T16:19:32.178Z,59.55
2022-12-01T16:22:12.081Z,60.36
2022-12-01T16:24:46.771Z,59.75
2022-12-01T16:27:29.070Z,60.54
2022-12-01T16:30:02.117Z,61.84
2022-12-01T16:32:39.716Z,62.29
2022-12-01T16:35:27.362Z,61.93
2022-12-01T16:37:55.404Z,61.83
2022-12-01T16:40:23.746Z,61.51
2022-12-01T16:42:51.034Z,62.24
2022-12-01T16:45:19.320Z,61.04
2022-12-01T16:47:49.600Z,60.34
2022-12-01T16:50:19.591Z,62.59
2022-12-01T16:52:47.343Z,61.91
2022-12-01T16:55:52.692Z,61.78
2022-12-01T16:58:20.976Z,62.41
2022-12-01T17:00:52.797Z,62.13
2022-12-01T17:03:22.980Z,62.30
2022-12-01T17:05:50.828Z,63.36
2022-12-01T17:08:18.312Z,62.21
2022-12-01T17:10:49.761Z,61.29
2022-12-01T17:13:23.472Z,61.38
2022-12-01T17:15:54.271Z,63.13
2022-12-01T17:18:23.634Z,64.04
2022-12-01T17:21:03.143Z,63.54
2022-12-01T17:23:33.036Z,62.63
2022-12-01T17:26:01.377Z,63.44
2022-12-01T17:28:29.636Z,64.26
2022-12-01T17:31:01.529Z,63.75
2022-12-01T17:33:29.603Z,61.59
2022-12-01T17:36:01.767Z,62.49
2022-12-01T17:38:29.487Z,62.04
2022-12-01T17:41:11.418Z,62.48
2022-12-01T17:43:40.016Z,63.70
2022-12-01T17:46:09.518Z,65.09
2022-12-01T17:48:39.669Z,65.26
2022-12-01T17:51:09.892Z,65.36
2022-12-01T17:53:39.490Z,65.28
2022-12-01T17:56:13.924Z,64.27
2022-12-01T17:58:42.422Z,63.52
2022-12-01T18:01:16.109Z,62.07
2022-12-01T18:03:44.709Z,62.27
2022-12-01T18:06:12.638Z,63.29
2022-12-01T18:08:40.881Z,62.59
2022-12-01T18:11:11.957Z,63.08
2022-12-01T18:13:42.241Z,64.00
2022-12-01T18:16:12.889Z,64.27
2022-12-01T18:18:40.526Z,65.49
2022-12-01T18:21:11.437Z,65.29
2022-12-01T18:23:39.780Z,65.24
2022-12-01T18:26:15.708Z,63.12
2022-12-01T18:28:44.452Z,64.52
2022-12-01T18:31:15.886Z,63.26
2022-12-01T18:33:45.112Z,65.39
2022-12-01T18:36:18.716Z,66.07
2022-12-01T18:38:47.702Z,65.94
2022-12-01T18:41:16.905Z,66.76
2022-12-01T18:46:29.933Z,66.78
2022-12-01T18:49:02.357Z,64.69
2022-12-01T18:51:35.368Z,64.87
2022-12-01T18:54:07.200Z,63.31
2022-12-01T18:56:35.384Z,64.61
2022-12-01T18:59:07.586Z,64.55
2022-12-01T19:01:37.979Z,64.87
2022-12-01T19:04:07.892Z,64.86
2022-12-01T19:06:37.458Z,65.68
2022-12-01T19:09:06.868Z,67.09
2022-12-01T19:11:34.701Z,67.28
2022-12-01T19:14:03.977Z,65.96
2022-12-01T19:16:31.959Z,66.37
2022-12-01T19:19:01.880Z,66.69
2022-12-01T19:21:36.480Z,67.45
2022-12-01T19:24:04.578Z,66.99
2022-12-01T19:26:32.726Z,66.96
2022-12-01T19:29:00.782Z,65.44
2022-12-01T19:31:28.858Z,65.37
2022-12-01T19:33:57.045Z,65.96
2022-12-01T19:36:28.125Z,64.38
2022-12-01T19:38:57.638Z,65.52
2022-12-01T19:41:26.444Z,67.24
2022-12-01T19:43:56.307Z,67.91
2022-12-01T19:46:25.909Z,67.90
2022-12-01T19:49:00.692Z,67.08
2022-12-01T19:51:32.533Z,66.46
2022-12-01T19:54:03.077Z,67.50
2022-12-01T19:56:31.732Z,67.59
2022-12-01T19:59:00.965Z,67.25
2022-12-01T20:01:29.464Z,66.46
2022-12-01T20:03:57.849Z,65.79
2022-12-01T20:06:29.620Z,65.19
2022-12-01T20:08:59.941Z,64.28
2022-12-01T20:11:30.243Z,65.86
2022-12-01T20:13:57.901Z,67.82
2022-12-01T20:16:27.204Z,67.89
2022-12-01T20:18:55.451Z,68.01
2022-12-01T20:21:28.107Z,67.33
2022-12-01T20:24:00.638Z,68.66
2022-12-01T20:26:34.085Z,67.81
2022-12-01T20:29:08.423Z,66.76
2022-12-01T20:31:37.267Z,66.61
2022-12-01T20:34:13.694Z,66.95
2022-12-01T20:36:41.881Z,68.02
2022-12-01T20:39:10.174Z,68.44
2022-12-01T20:41:38.897Z,67.49
2022-12-01T20:44:07.937Z,67.12
2022-12-01T20:46:37.361Z,66.24
2022-12-01T20:49:08.322Z,65.97
2022-12-01T20:51:36.771Z,65.98
2022-12-01T20:56:54.985Z,66.60
2022-12-01T20:59:22.620Z,67.76
2022-12-01T21:01:50.412Z,66.28
2022-12-01T21:04:18.153Z,65.98
2022-12-01T21:06:46.794Z,67.99
2022-12-01T21:09:15.243Z,68.97
2022-12-01T21:12:07.280Z,68.01
2022-12-01T21:15:00.211Z,66.90
2022-12-01T21:17:36.576Z,67.78
2022-12-01T21:20:09.206Z,66.95
2022-12-01T21:22:37.010Z,66.60
2022-12-01T21:25:12.443Z,68.59
2022-12-01T21:27:40.092Z,66.39
2022-12-01T21:30:16.309Z,67.21
2022-12-01T21:32:44.681Z,68.75
2022-12-01T21:35:20.828Z,68.61
2022-12-01T21:37:49.283Z,69.43
2022-12-01T21:40:19.266Z,69.04
2022-12-01T21:42:46.635Z,67.65
2022-12-01T21:45:18.238Z,67.30
2022-12-01T21:47:45.571Z,68.03
2022-12-01T21:50:21.079Z,67.70
2022-12-01T21:52:49.110Z,68.94
2022-12-01T21:55:16.337Z,70.44
2022-12-01T21:57:48.404Z,69.83
2022-12-01T22:00:29.619Z,69.36
2022-12-01T22:03:00.307Z,69.58
2022-12-01T22:05:37.341Z,70.61
2022-12-01T22:08:07.726Z,70.03
2022-12-01T22:11:01.355Z,68.76
2022-12-01T22:13:44.188Z,69.22
2022-12-01T22:16:23.545Z,69.28
2022-12-01T22:18:54.050Z,69.35
2022-12-01T22:21:30.539Z,69.29
2022-12-01T22:24:06.011Z,70.95
2022-12-01T22:26:35.885Z,70.15
2022-12-01T22:29:16.611Z,70.16
2022-12-01T22:31:44.862Z,71.29
2022-12-01T22:34:14.186Z,70.53
2022-12-01T22:36:41.651Z,70.79
2022-12-01T22:39:26.270Z,71.85
2022-12-01T22:41:59.004Z,70.91
2022-12-01T22:44:28.039Z,70.32
2022-12-01T22:46:59.967Z,72.30
2022-12-01T22:49:29.801Z,72.44
2022-12-01T22:52:01.123Z,72.83
2022-12-01T22:54:39.062Z,71.10
2022-12-01T22:57:25.146Z,69.99
2022-12-01T22:59:53.151Z,70.55
2022-12-01T23:02:31.930Z,70.81
2022-12-01T23:05:01.554Z,69.01
2022-12-01T23:07:37.193Z,69.76
2022-12-01T23:10:20.836Z,71.38
2022-12-01T23:12:50.617Z,71.21
2022-12-01T23:15:34.913Z,72.13
2022-12-01T23:18:27.000Z,72.80
2022-12-01T23:20:58.937Z,71.44
2022-12-01T23:23:32.147Z,70.18
2022-12-01T23:26:01.780Z,68.23
2022-12-01T23:28:29.634Z,66.81
2022-12-01T23:30:58.932Z,68.98
2022-12-01T23:33:28.566Z,69.68
2022-12-01T23:35:59.880Z,71.08
2022-12-01T23:38:39.121Z,71.27
2022-12-01T23:41:23.972Z,69.64
2022-12-01T23:43:54.123Z,70.12
2022-12-01T23:46:24.545Z,70.59
2022-12-01T23:48:56.041Z,71.77
2022-12-01T23:51:50.295Z,71.16
2022-12-01T23:54:25.734Z,71.62
2022-12-01T23:56:56.165Z,71.38
2022-12-01T23:59:23.864Z,70.54
